sensor_id;sensor_type;location;lat;lon;timestamp;temperature;humidity
7427;DHT22;3755;59.316;18.092;2023-04-01T00:00:33;-3.20;99.90
7427;DHT22;3755;59.316;18.092;2023-04-01T00:03:02;-3.20;99.90
7427;DHT22;3755;59.316;18.092;2023-04-01T00:05:29;-3.20;99.90
7427;DHT22;3755;59.316;18.092;2023-04-01T00:07:56;-3.20;99.90
7427;DHT22;3755;59.316;18.092;2023-04-01T00:10:24;-3.10;99.90
7427;DHT22;3755;59.316;18.092;2023-04-01T00:12:51;-3.20;99.90
7427;DHT22;3755;59.316;18.092;2023-04-01T00:15:19;-3.10;99.90
7427;DHT22;3755;59.316;18.092;2023-04-01T00:17:46;-3.20;99.90
7427;DHT22;3755;59.316;18.092;2023-04-01T00:20:15;-3.20;99.90
7427;DHT22;3755;59.316;18.092;2023-04-01T00:22:44;-3.20;99.90
7427;DHT22;3755;59.316;18.092;2023-04-01T00:25:11;-3.10;99.90
7427;DHT22;3755;59.316;18.092;2023-04-01T00:27:38;-3.20;99.90
7427;DHT22;3755;59.316;18.092;2023-04-01T00:30:07;-3.20;99.90
7427;DHT22;3755;59.316;18.092;2023-04-01T00:32:34;-3.20;99.90
7427;DHT22;3755;59.316;18.092;2023-04-01T00:35:02;-3.20;99.90
7427;DHT22;3755;59.316;18.092;2023-04-01T00:37:34;-3.20;99.90
7427;DHT22;3755;59.316;18.092;2023-04-01T00:40:03;-3.20;99.90
7427;DHT22;3755;59.316;18.092;2023-04-01T00:42:31;-3.20;99.90
7427;DHT22;3755;59.316;18.092;2023-04-01T00:44:58;-3.20;99.90
7427;DHT22;3755;59.316;18.092;2023-04-01T00:47:27;-3.20;99.90
7427;DHT22;3755;59.316;18.092;2023-04-01T00:49:55;-3.20;99.90
7427;DHT22;3755;59.316;18.092;2023-04-01T00:52:23;-3.20;99.90
7427;DHT22;3755;59.316;18.092;2023-04-01T00:54:57;-3.20;99.90
7427;DHT22;3755;59.316;18.092;2023-04-01T00:57:31;-3.30;99.90
7427;DHT22;3755;59.316;18.092;2023-04-01T01:00:00;-3.20;99.90
7427;DHT22;3755;59.316;18.092;2023-04-01T01:02:28;-3.20;99.90
7427;DHT22;3755;59.316;18.092;2023-04-01T01:04:56;-3.30;99.90
7427;DHT22;3755;59.316;18.092;2023-04-01T01:07:32;-3.20;99.90
7427;DHT22;3755;59.316;18.092;2023-04-01T01:10:10;-3.20;99.90
7427;DHT22;3755;59.316;18.092;2023-04-01T01:12:50;-3.30;99.90
7427;DHT22;3755;59.316;18.092;2023-04-01T01:15:22;-3.40;99.90
7427;DHT22;3755;59.316;18.092;2023-04-01T01:17:57;-3.30;99.90
7427;DHT22;3755;59.316;18.092;2023-04-01T01:21:00;-3.40;99.90
7427;DHT22;3755;59.316;18.092;2023-04-01T01:26:59;-3.50;99.90
7427;DHT22;3755;59.316;18.092;2023-04-01T01:35:37;-3.50;99.90
7427;DHT22;3755;59.316;18.092;2023-04-01T01:38:08;-3.50;99.90
7427;DHT22;3755;59.316;18.092;2023-04-01T01:40:39;-3.50;99.90
7427;DHT22;3755;59.316;18.092;2023-04-01T01:43:14;-3.50;99.90
7427;DHT22;3755;59.316;18.092;2023-04-01T01:45:50;-3.40;99.90
7427;DHT22;3755;59.316;18.092;2023-04-01T01:48:20;-3.40;99.90
7427;DHT22;3755;59.316;18.092;2023-04-01T01:50:55;-3.40;99.90
7427;DHT22;3755;59.316;18.092;2023-04-01T01:53:22;-3.40;99.90
7427;DHT22;3755;59.316;18.092;2023-04-01T01:55:49;-3.50;99.90
7427;DHT22;3755;59.316;18.092;2023-04-01T01:58:20;-3.50;99.90
7427;DHT22;3755;59.316;18.092;2023-04-01T02:00:53;-3.50;99.90
7427;DHT22;3755;59.316;18.092;2023-04-01T02:03:23;-3.50;99.90
7427;DHT22;3755;59.316;18.092;2023-04-01T02:05:54;-3.60;99.90
7427;DHT22;3755;59.316;18.092;2023-04-01T02:08:26;-3.60;99.90
7427;DHT22;3755;59.316;18.092;2023-04-01T02:10:57;-3.60;99.90
7427;DHT22;3755;59.316;18.092;2023-04-01T02:13:30;-3.50;99.90
7427;DHT22;3755;59.316;18.092;2023-04-01T02:16:03;-3.50;99.90
7427;DHT22;3755;59.316;18.092;2023-04-01T02:18:35;-3.70;99.90
7427;DHT22;3755;59.316;18.092;2023-04-01T02:21:05;-3.60;99.90
7427;DHT22;3755;59.316;18.092;2023-04-01T02:23:35;-3.60;99.90
7427;DHT22;3755;59.316;18.092;2023-04-01T02:26:05;-3.50;99.90
7427;DHT22;3755;59.316;18.092;2023-04-01T02:28:34;-3.50;99.90
7427;DHT22;3755;59.316;18.092;2023-04-01T02:31:05;-3.50;99.90
7427;DHT22;3755;59.316;18.092;2023-04-01T02:33:34;-3.60;99.90
7427;DHT22;3755;59.316;18.092;2023-04-01T02:36:01;-3.60;99.90
7427;DHT22;3755;59.316;18.092;2023-04-01T02:38:30;-3.60;99.90
7427;DHT22;3755;59.316;18.092;2023-04-01T02:40:59;-3.60;99.90
7427;DHT22;3755;59.316;18.092;2023-04-01T02:43:27;-3.60;99.90
7427;DHT22;3755;59.316;18.092;2023-04-01T02:45:55;-3.60;99.90
7427;DHT22;3755;59.316;18.092;2023-04-01T02:48:22;-3.60;99.90
7427;DHT22;3755;59.316;18.092;2023-04-01T02:50:49;-3.60;99.90
7427;DHT22;3755;59.316;18.092;2023-04-01T02:53:16;-3.60;99.90
7427;DHT22;3755;59.316;18.092;2023-04-01T02:55:46;-3.60;99.90
7427;DHT22;3755;59.316;18.092;2023-04-01T02:58:16;-3.60;99.90
7427;DHT22;3755;59.316;18.092;2023-04-01T03:00:43;-3.50;99.90
7427;DHT22;3755;59.316;18.092;2023-04-01T03:03:10;-3.50;99.90
7427;DHT22;3755;59.316;18.092;2023-04-01T03:05:39;-3.60;99.90
7427;DHT22;3755;59.316;18.092;2023-04-01T03:08:07;-3.60;99.90
7427;DHT22;3755;59.316;18.092;2023-04-01T03:10:34;-3.60;99.90
7427;DHT22;3755;59.316;18.092;2023-04-01T03:13:03;-3.60;99.90
7427;DHT22;3755;59.316;18.092;2023-04-01T03:15:31;-3.60;99.90
7427;DHT22;3755;59.316;18.092;2023-04-01T03:17:58;-3.60;99.90
7427;DHT22;3755;59.316;18.092;2023-04-01T03:20:25;-3.60;99.90
7427;DHT22;3755;59.316;18.092;2023-04-01T03:22:52;-3.60;99.90
7427;DHT22;3755;59.316;18.092;2023-04-01T03:25:20;-3.60;99.90
7427;DHT22;3755;59.316;18.092;2023-04-01T03:27:47;-3.60;99.90
7427;DHT22;3755;59.316;18.092;2023-04-01T03:30:16;-3.70;99.90
7427;DHT22;3755;59.316;18.092;2023-04-01T03:32:43;-3.60;99.90
7427;DHT22;3755;59.316;18.092;2023-04-01T03:35:10;-3.70;99.90
7427;DHT22;3755;59.316;18.092;2023-04-01T03:37:38;-3.70;99.90
7427;DHT22;3755;59.316;18.092;2023-04-01T03:40:06;-3.70;99.90
7427;DHT22;3755;59.316;18.092;2023-04-01T03:42:34;-3.70;99.90
7427;DHT22;3755;59.316;18.092;2023-04-01T03:45:01;-3.70;99.90
7427;DHT22;3755;59.316;18.092;2023-04-01T03:47:31;-3.70;99.90
7427;DHT22;3755;59.316;18.092;2023-04-01T03:49:58;-3.60;99.90
7427;DHT22;3755;59.316;18.092;2023-04-01T03:52:26;-3.60;99.90
7427;DHT22;3755;59.316;18.092;2023-04-01T03:54:53;-3.60;99.90
7427;DHT22;3755;59.316;18.092;2023-04-01T03:57:20;-3.60;99.90
7427;DHT22;3755;59.316;18.092;2023-04-01T03:59:48;-3.50;99.90
7427;DHT22;3755;59.316;18.092;2023-04-01T04:02:15;-3.50;99.90
7427;DHT22;3755;59.316;18.092;2023-04-01T04:04:44;-3.50;99.90
7427;DHT22;3755;59.316;18.092;2023-04-01T04:07:12;-3.50;99.90
7427;DHT22;3755;59.316;18.092;2023-04-01T04:09:40;-3.50;99.90
7427;DHT22;3755;59.316;18.092;2023-04-01T04:12:07;-3.50;99.90
7427;DHT22;3755;59.316;18.092;2023-04-01T04:14:34;-3.50;99.90
7427;DHT22;3755;59.316;18.092;2023-04-01T04:17:02;-3.50;99.90
7427;DHT22;3755;59.316;18.092;2023-04-01T04:19:32;-3.50;99.90
7427;DHT22;3755;59.316;18.092;2023-04-01T04:22:02;-3.50;99.90
7427;DHT22;3755;59.316;18.092;2023-04-01T04:24:29;-3.50;99.90
7427;DHT22;3755;59.316;18.092;2023-04-01T04:26:56;-3.30;99.90
7427;DHT22;3755;59.316;18.092;2023-04-01T04:29:23;-3.20;99.90
7427;DHT22;3755;59.316;18.092;2023-04-01T04:31:51;-3.10;99.90
7427;DHT22;3755;59.316;18.092;2023-04-01T04:34:18;-3.00;99.90
7427;DHT22;3755;59.316;18.092;2023-04-01T04:36:47;-2.90;99.90
7427;DHT22;3755;59.316;18.092;2023-04-01T04:39:16;-2.80;99.90
7427;DHT22;3755;59.316;18.092;2023-04-01T04:41:43;-2.80;99.90
7427;DHT22;3755;59.316;18.092;2023-04-01T04:44:11;-2.80;99.90
7427;DHT22;3755;59.316;18.092;2023-04-01T04:46:38;-2.70;99.90
7427;DHT22;3755;59.316;18.092;2023-04-01T04:49:06;-2.80;99.90
7427;DHT22;3755;59.316;18.092;2023-04-01T04:51:33;-2.80;99.90
7427;DHT22;3755;59.316;18.092;2023-04-01T04:54:02;-2.80;99.90
7427;DHT22;3755;59.316;18.092;2023-04-01T04:56:32;-2.80;99.90
7427;DHT22;3755;59.316;18.092;2023-04-01T04:58:59;-2.80;99.90
7427;DHT22;3755;59.316;18.092;2023-04-01T05:01:26;-2.80;99.90
7427;DHT22;3755;59.316;18.092;2023-04-01T05:03:54;-2.80;99.90
7427;DHT22;3755;59.316;18.092;2023-04-01T05:06:21;-2.80;99.90
7427;DHT22;3755;59.316;18.092;2023-04-01T05:08:49;-2.80;99.90
7427;DHT22;3755;59.316;18.092;2023-04-01T05:11:18;-2.80;99.90
7427;DHT22;3755;59.316;18.092;2023-04-01T05:13:47;-2.80;99.90
7427;DHT22;3755;59.316;18.092;2023-04-01T05:16:17;-2.80;99.90
7427;DHT22;3755;59.316;18.092;2023-04-01T05:18:45;-2.80;99.90
7427;DHT22;3755;59.316;18.092;2023-04-01T05:21:15;-2.80;99.90
7427;DHT22;3755;59.316;18.092;2023-04-01T05:23:43;-2.70;99.90
7427;DHT22;3755;59.316;18.092;2023-04-01T05:26:12;-2.70;99.90
7427;DHT22;3755;59.316;18.092;2023-04-01T05:28:40;-2.60;99.90
7427;DHT22;3755;59.316;18.092;2023-04-01T05:31:09;-2.50;99.90
7427;DHT22;3755;59.316;18.092;2023-04-01T05:33:38;-2.50;99.90
7427;DHT22;3755;59.316;18.092;2023-04-01T05:36:09;-2.40;99.90
7427;DHT22;3755;59.316;18.092;2023-04-01T05:38:37;-2.20;99.90
7427;DHT22;3755;59.316;18.092;2023-04-01T05:41:06;-2.10;99.90
7427;DHT22;3755;59.316;18.092;2023-04-01T05:43:47;-2.00;99.90
7427;DHT22;3755;59.316;18.092;2023-04-01T05:46:23;-1.90;99.90
7427;DHT22;3755;59.316;18.092;2023-04-01T05:49:07;-1.90;99.90
7427;DHT22;3755;59.316;18.092;2023-04-01T05:52:03;-1.90;99.90
7427;DHT22;3755;59.316;18.092;2023-04-01T05:54:34;-1.90;99.90
7427;DHT22;3755;59.316;18.092;2023-04-01T05:57:16;-1.80;99.90
7427;DHT22;3755;59.316;18.092;2023-04-01T05:59:49;-1.80;99.90
7427;DHT22;3755;59.316;18.092;2023-04-01T06:02:18;-1.70;99.90
7427;DHT22;3755;59.316;18.092;2023-04-01T06:04:46;-1.70;99.90
7427;DHT22;3755;59.316;18.092;2023-04-01T06:07:15;-1.60;99.90
7427;DHT22;3755;59.316;18.092;2023-04-01T06:09:43;-1.50;99.90
7427;DHT22;3755;59.316;18.092;2023-04-01T06:12:27;-1.40;99.90
7427;DHT22;3755;59.316;18.092;2023-04-01T06:15:08;-1.40;99.90
7427;DHT22;3755;59.316;18.092;2023-04-01T06:17:56;-1.30;99.90
7427;DHT22;3755;59.316;18.092;2023-04-01T06:20:33;-1.20;99.90
7427;DHT22;3755;59.316;18.092;2023-04-01T06:23:33;-1.20;99.90
7427;DHT22;3755;59.316;18.092;2023-04-01T06:26:20;-1.10;99.90
7427;DHT22;3755;59.316;18.092;2023-04-01T06:29:15;-1.10;99.90
7427;DHT22;3755;59.316;18.092;2023-04-01T06:32:11;-0.90;99.90
7427;DHT22;3755;59.316;18.092;2023-04-01T06:38:25;-0.70;99.90
7427;DHT22;3755;59.316;18.092;2023-04-01T06:43:49;-0.50;99.90
7427;DHT22;3755;59.316;18.092;2023-04-01T06:46:30;-0.50;99.90
7427;DHT22;3755;59.316;18.092;2023-04-01T06:49:07;-0.40;99.90
7427;DHT22;3755;59.316;18.092;2023-04-01T06:51:44;-0.30;99.90
7427;DHT22;3755;59.316;18.092;2023-04-01T06:54:18;-0.20;99.90
7427;DHT22;3755;59.316;18.092;2023-04-01T06:56:52;-0.20;99.90
7427;DHT22;3755;59.316;18.092;2023-04-01T06:59:25;-0.10;99.90
7427;DHT22;3755;59.316;18.092;2023-04-01T07:01:57;0.00;99.90
7427;DHT22;3755;59.316;18.092;2023-04-01T07:04:29;0.10;99.90
7427;DHT22;3755;59.316;18.092;2023-04-01T07:06:59;0.10;99.90
7427;DHT22;3755;59.316;18.092;2023-04-01T07:09:35;0.20;99.90
7427;DHT22;3755;59.316;18.092;2023-04-01T07:12:12;0.30;99.90
7427;DHT22;3755;59.316;18.092;2023-04-01T07:14:43;0.30;99.90
7427;DHT22;3755;59.316;18.092;2023-04-01T07:17:17;0.40;99.90
7427;DHT22;3755;59.316;18.092;2023-04-01T07:19:51;0.40;99.90
7427;DHT22;3755;59.316;18.092;2023-04-01T07:22:26;0.50;99.90
7427;DHT22;3755;59.316;18.092;2023-04-01T07:25:03;0.60;99.90
7427;DHT22;3755;59.316;18.092;2023-04-01T07:27:32;0.70;99.90
7427;DHT22;3755;59.316;18.092;2023-04-01T07:30:03;0.80;99.90
7427;DHT22;3755;59.316;18.092;2023-04-01T07:32:39;0.90;99.90
7427;DHT22;3755;59.316;18.092;2023-04-01T07:35:20;0.90;99.90
7427;DHT22;3755;59.316;18.092;2023-04-01T07:38:05;1.00;99.90
7427;DHT22;3755;59.316;18.092;2023-04-01T07:40:43;1.10;99.90
7427;DHT22;3755;59.316;18.092;2023-04-01T07:43:39;1.10;99.90
7427;DHT22;3755;59.316;18.092;2023-04-01T07:46:19;1.10;99.90
7427;DHT22;3755;59.316;18.092;2023-04-01T07:48:54;1.20;99.90
7427;DHT22;3755;59.316;18.092;2023-04-01T07:51:31;1.20;99.90
7427;DHT22;3755;59.316;18.092;2023-04-01T07:54:06;1.20;99.90
7427;DHT22;3755;59.316;18.092;2023-04-01T07:56:42;1.40;99.90
7427;DHT22;3755;59.316;18.092;2023-04-01T07:59:19;1.40;99.90
7427;DHT22;3755;59.316;18.092;2023-04-01T08:01:57;1.50;99.90
7427;DHT22;3755;59.316;18.092;2023-04-01T08:04:40;1.50;99.90
7427;DHT22;3755;59.316;18.092;2023-04-01T08:07:30;1.50;99.90
7427;DHT22;3755;59.316;18.092;2023-04-01T08:10:07;1.60;99.90
7427;DHT22;3755;59.316;18.092;2023-04-01T08:13:04;1.60;99.90
7427;DHT22;3755;59.316;18.092;2023-04-01T08:15:38;1.50;99.90
7427;DHT22;3755;59.316;18.092;2023-04-01T08:18:15;1.50;99.90
7427;DHT22;3755;59.316;18.092;2023-04-01T08:23:36;1.60;99.90
7427;DHT22;3755;59.316;18.092;2023-04-01T08:26:08;1.60;99.90
7427;DHT22;3755;59.316;18.092;2023-04-01T08:28:57;1.70;99.90
7427;DHT22;3755;59.316;18.092;2023-04-01T08:31:32;1.80;99.90
7427;DHT22;3755;59.316;18.092;2023-04-01T08:34:01;2.00;99.90
7427;DHT22;3755;59.316;18.092;2023-04-01T08:36:33;2.00;99.90
7427;DHT22;3755;59.316;18.092;2023-04-01T08:39:06;2.10;99.90
7427;DHT22;3755;59.316;18.092;2023-04-01T08:51:53;2.20;99.90
7427;DHT22;3755;59.316;18.092;2023-04-01T08:54:43;2.30;99.90
7427;DHT22;3755;59.316;18.092;2023-04-01T08:57:25;2.40;99.90
7427;DHT22;3755;59.316;18.092;2023-04-01T09:00:19;2.50;99.90
7427;DHT22;3755;59.316;18.092;2023-04-01T09:03:37;2.50;99.90
7427;DHT22;3755;59.316;18.092;2023-04-01T09:06:32;2.60;99.90
7427;DHT22;3755;59.316;18.092;2023-04-01T09:16:05;2.70;99.90
7427;DHT22;3755;59.316;18.092;2023-04-01T09:18:58;3.00;99.90
7427;DHT22;3755;59.316;18.092;2023-04-01T09:21:56;3.10;99.90
7427;DHT22;3755;59.316;18.092;2023-04-01T09:27:34;3.30;99.90
7427;DHT22;3755;59.316;18.092;2023-04-01T09:30:34;3.40;99.90
7427;DHT22;3755;59.316;18.092;2023-04-01T09:33:36;3.50;99.90
7427;DHT22;3755;59.316;18.092;2023-04-01T09:36:26;3.50;99.90
7427;DHT22;3755;59.316;18.092;2023-04-01T09:38:58;3.50;99.90
7427;DHT22;3755;59.316;18.092;2023-04-01T09:41:31;3.70;99.90
7427;DHT22;3755;59.316;18.092;2023-04-01T09:44:14;3.80;99.90
7427;DHT22;3755;59.316;18.092;2023-04-01T09:47:06;3.80;99.90
7427;DHT22;3755;59.316;18.092;2023-04-01T09:50:24;3.80;99.10
7427;DHT22;3755;59.316;18.092;2023-04-01T09:53:07;3.80;99.00
7427;DHT22;3755;59.316;18.092;2023-04-01T09:59:12;4.00;98.10
7427;DHT22;3755;59.316;18.092;2023-04-01T10:02:04;3.90;98.00
7427;DHT22;3755;59.316;18.092;2023-04-01T10:08:56;4.00;97.50
7427;DHT22;3755;59.316;18.092;2023-04-01T10:12:24;4.10;97.60
7427;DHT22;3755;59.316;18.092;2023-04-01T10:15:39;4.10;96.80
7427;DHT22;3755;59.316;18.092;2023-04-01T10:21:50;4.20;96.70
7427;DHT22;3755;59.316;18.092;2023-04-01T10:24:38;4.20;97.40
7427;DHT22;3755;59.316;18.092;2023-04-01T10:27:41;4.20;97.40
7427;DHT22;3755;59.316;18.092;2023-04-01T10:33:45;4.30;96.20
7427;DHT22;3755;59.316;18.092;2023-04-01T10:39:38;4.40;96.40
7427;DHT22;3755;59.316;18.092;2023-04-01T10:43:07;4.50;96.30
7427;DHT22;3755;59.316;18.092;2023-04-01T10:55:28;4.90;94.50
7427;DHT22;3755;59.316;18.092;2023-04-01T10:58:25;4.90;93.80
7427;DHT22;3755;59.316;18.092;2023-04-01T11:01:15;4.90;93.10
7427;DHT22;3755;59.316;18.092;2023-04-01T11:07:29;4.70;91.40
7427;DHT22;3755;59.316;18.092;2023-04-01T11:10:35;4.70;91.70
7427;DHT22;3755;59.316;18.092;2023-04-01T11:16:53;4.80;90.80
7427;DHT22;3755;59.316;18.092;2023-04-01T11:19:54;4.70;90.80
7427;DHT22;3755;59.316;18.092;2023-04-01T11:26:07;4.80;91.50
7427;DHT22;3755;59.316;18.092;2023-04-01T11:31:45;4.90;90.60
7427;DHT22;3755;59.316;18.092;2023-04-01T11:34:37;5.00;91.10
7427;DHT22;3755;59.316;18.092;2023-04-01T11:37:33;5.00;91.20
7427;DHT22;3755;59.316;18.092;2023-04-01T11:40:12;5.10;91.00
7427;DHT22;3755;59.316;18.092;2023-04-01T11:43:08;5.10;90.90
7427;DHT22;3755;59.316;18.092;2023-04-01T11:45:49;5.10;91.00
7427;DHT22;3755;59.316;18.092;2023-04-01T11:48:41;5.20;90.20
7427;DHT22;3755;59.316;18.092;2023-04-01T11:51:28;5.10;89.40
7427;DHT22;3755;59.316;18.092;2023-04-01T11:54:06;5.10;88.90
7427;DHT22;3755;59.316;18.092;2023-04-01T11:56:47;5.20;90.00
7427;DHT22;3755;59.316;18.092;2023-04-01T12:02:28;5.30;89.10
7427;DHT22;3755;59.316;18.092;2023-04-01T12:05:14;5.40;88.40
7427;DHT22;3755;59.316;18.092;2023-04-01T12:08:02;5.30;88.20
7427;DHT22;3755;59.316;18.092;2023-04-01T12:10:54;5.10;88.80
7427;DHT22;3755;59.316;18.092;2023-04-01T12:13:31;5.00;90.20
7427;DHT22;3755;59.316;18.092;2023-04-01T12:16:29;5.00;89.20
7427;DHT22;3755;59.316;18.092;2023-04-01T12:19:16;5.00;88.80
7427;DHT22;3755;59.316;18.092;2023-04-01T12:22:21;5.00;87.50
7427;DHT22;3755;59.316;18.092;2023-04-01T12:25:07;5.00;87.30
7427;DHT22;3755;59.316;18.092;2023-04-01T12:28:04;4.90;88.50
7427;DHT22;3755;59.316;18.092;2023-04-01T12:30:46;5.00;89.90
7427;DHT22;3755;59.316;18.092;2023-04-01T12:36:40;5.00;90.00
7427;DHT22;3755;59.316;18.092;2023-04-01T12:39:37;5.00;89.90
7427;DHT22;3755;59.316;18.092;2023-04-01T12:42:44;4.90;89.40
7427;DHT22;3755;59.316;18.092;2023-04-01T12:45:31;4.90;90.40
7427;DHT22;3755;59.316;18.092;2023-04-01T12:48:23;4.90;90.40
7427;DHT22;3755;59.316;18.092;2023-04-01T12:51:41;4.90;90.90
7427;DHT22;3755;59.316;18.092;2023-04-01T12:54:49;4.80;90.40
7427;DHT22;3755;59.316;18.092;2023-04-01T12:57:40;4.90;90.60
7427;DHT22;3755;59.316;18.092;2023-04-01T13:00:24;4.80;90.60
7427;DHT22;3755;59.316;18.092;2023-04-01T13:03:09;4.70;90.60
7427;DHT22;3755;59.316;18.092;2023-04-01T13:06:18;4.70;91.20
7427;DHT22;3755;59.316;18.092;2023-04-01T13:09:17;4.80;90.80
7427;DHT22;3755;59.316;18.092;2023-04-01T13:12:20;4.90;92.00
7427;DHT22;3755;59.316;18.092;2023-04-01T13:17:50;4.80;91.10
7427;DHT22;3755;59.316;18.092;2023-04-01T13:20:45;4.70;91.00
7427;DHT22;3755;59.316;18.092;2023-04-01T13:23:42;4.80;91.50
7427;DHT22;3755;59.316;18.092;2023-04-01T13:29:48;4.80;91.50
7427;DHT22;3755;59.316;18.092;2023-04-01T13:32:33;4.90;91.70
7427;DHT22;3755;59.316;18.092;2023-04-01T13:35:21;4.90;92.30
7427;DHT22;3755;59.316;18.092;2023-04-01T13:38:08;4.80;90.30
7427;DHT22;3755;59.316;18.092;2023-04-01T13:40:58;4.80;90.80
7427;DHT22;3755;59.316;18.092;2023-04-01T13:43:34;4.90;91.20
7427;DHT22;3755;59.316;18.092;2023-04-01T13:53:43;4.90;90.90
7427;DHT22;3755;59.316;18.092;2023-04-01T13:56:38;4.80;90.70
7427;DHT22;3755;59.316;18.092;2023-04-01T13:59:46;4.80;90.50
7427;DHT22;3755;59.316;18.092;2023-04-01T14:02:38;4.80;90.40
7427;DHT22;3755;59.316;18.092;2023-04-01T14:05:36;4.70;87.70
7427;DHT22;3755;59.316;18.092;2023-04-01T14:08:41;4.60;87.60
7427;DHT22;3755;59.316;18.092;2023-04-01T14:11:30;4.50;87.00
7427;DHT22;3755;59.316;18.092;2023-04-01T14:14:06;4.50;87.90
7427;DHT22;3755;59.316;18.092;2023-04-01T14:17:21;4.40;87.40
7427;DHT22;3755;59.316;18.092;2023-04-01T14:20:25;4.30;87.90
7427;DHT22;3755;59.316;18.092;2023-04-01T14:32:54;4.50;92.00
7427;DHT22;3755;59.316;18.092;2023-04-01T14:35:39;4.60;91.90
7427;DHT22;3755;59.316;18.092;2023-04-01T14:41:36;4.60;91.20
7427;DHT22;3755;59.316;18.092;2023-04-01T14:44:29;4.60;90.80
7427;DHT22;3755;59.316;18.092;2023-04-01T14:50:29;4.50;90.20
7427;DHT22;3755;59.316;18.092;2023-04-01T14:53:26;4.50;90.60
7427;DHT22;3755;59.316;18.092;2023-04-01T14:56:12;4.90;90.10
7427;DHT22;3755;59.316;18.092;2023-04-01T14:58:57;5.40;89.20
7427;DHT22;3755;59.316;18.092;2023-04-01T15:01:46;5.10;90.20
7427;DHT22;3755;59.316;18.092;2023-04-01T15:07:54;4.90;87.80
7427;DHT22;3755;59.316;18.092;2023-04-01T15:11:12;4.90;87.50
7427;DHT22;3755;59.316;18.092;2023-04-01T15:14:35;4.50;83.20
7427;DHT22;3755;59.316;18.092;2023-04-01T15:17:33;4.10;83.20
7427;DHT22;3755;59.316;18.092;2023-04-01T15:20:31;3.90;85.10
7427;DHT22;3755;59.316;18.092;2023-04-01T15:23:09;3.90;85.80
7427;DHT22;3755;59.316;18.092;2023-04-01T15:26:01;3.80;86.20
7427;DHT22;3755;59.316;18.092;2023-04-01T15:28:36;3.80;86.70
7427;DHT22;3755;59.316;18.092;2023-04-01T15:31:13;3.80;86.90
7427;DHT22;3755;59.316;18.092;2023-04-01T15:34:11;3.80;86.40
7427;DHT22;3755;59.316;18.092;2023-04-01T15:36:59;3.80;86.50
7427;DHT22;3755;59.316;18.092;2023-04-01T15:39:45;3.70;87.20
7427;DHT22;3755;59.316;18.092;2023-04-01T15:42:25;3.70;87.50
7427;DHT22;3755;59.316;18.092;2023-04-01T15:45:18;3.70;87.80
7427;DHT22;3755;59.316;18.092;2023-04-01T15:51:31;4.10;88.20
7427;DHT22;3755;59.316;18.092;2023-04-01T15:55:11;3.60;88.20
7427;DHT22;3755;59.316;18.092;2023-04-01T15:57:50;3.50;88.00
7427;DHT22;3755;59.316;18.092;2023-04-01T16:00:28;3.40;87.70
7427;DHT22;3755;59.316;18.092;2023-04-01T16:03:23;3.40;88.00
7427;DHT22;3755;59.316;18.092;2023-04-01T16:09:45;3.30;89.00
7427;DHT22;3755;59.316;18.092;2023-04-01T16:12:49;3.30;88.70
7427;DHT22;3755;59.316;18.092;2023-04-01T16:15:39;3.20;89.00
7427;DHT22;3755;59.316;18.092;2023-04-01T16:18:39;3.10;89.00
7427;DHT22;3755;59.316;18.092;2023-04-01T16:21:36;3.10;90.20
7427;DHT22;3755;59.316;18.092;2023-04-01T16:24:24;3.10;90.60
7427;DHT22;3755;59.316;18.092;2023-04-01T16:27:18;3.00;90.70
7427;DHT22;3755;59.316;18.092;2023-04-01T16:30:26;3.00;91.40
7427;DHT22;3755;59.316;18.092;2023-04-01T16:33:20;3.00;91.60
7427;DHT22;3755;59.316;18.092;2023-04-01T16:35:58;3.00;91.40
7427;DHT22;3755;59.316;18.092;2023-04-01T16:38:36;2.90;91.20
7427;DHT22;3755;59.316;18.092;2023-04-01T16:41:23;2.80;91.60
7427;DHT22;3755;59.316;18.092;2023-04-01T16:44:20;2.80;92.20
7427;DHT22;3755;59.316;18.092;2023-04-01T16:47:09;2.80;92.10
7427;DHT22;3755;59.316;18.092;2023-04-01T16:50:06;2.80;92.20
7427;DHT22;3755;59.316;18.092;2023-04-01T16:52:57;3.20;92.50
7427;DHT22;3755;59.316;18.092;2023-04-01T16:55:48;3.90;91.80
7427;DHT22;3755;59.316;18.092;2023-04-01T16:58:36;4.40;90.70
7427;DHT22;3755;59.316;18.092;2023-04-01T17:01:09;4.40;90.70
7427;DHT22;3755;59.316;18.092;2023-04-01T17:03:49;4.30;90.40
7427;DHT22;3755;59.316;18.092;2023-04-01T17:06:39;4.40;90.20
7427;DHT22;3755;59.316;18.092;2023-04-01T17:09:24;4.00;90.30
7427;DHT22;3755;59.316;18.092;2023-04-01T17:12:00;3.40;90.80
7427;DHT22;3755;59.316;18.092;2023-04-01T17:14:48;3.00;91.30
7427;DHT22;3755;59.316;18.092;2023-04-01T17:17:37;2.60;90.70
7427;DHT22;3755;59.316;18.092;2023-04-01T17:20:25;2.30;90.70
7427;DHT22;3755;59.316;18.092;2023-04-01T17:23:20;2.10;91.30
7427;DHT22;3755;59.316;18.092;2023-04-01T17:26:17;1.90;92.10
7427;DHT22;3755;59.316;18.092;2023-04-01T17:29:07;1.80;92.80
7427;DHT22;3755;59.316;18.092;2023-04-01T17:31:46;1.70;93.40
7427;DHT22;3755;59.316;18.092;2023-04-01T17:34:41;1.70;94.00
7427;DHT22;3755;59.316;18.092;2023-04-01T17:37:30;1.60;94.40
7427;DHT22;3755;59.316;18.092;2023-04-01T17:40:30;1.60;94.90
7427;DHT22;3755;59.316;18.092;2023-04-01T17:43:22;1.50;95.40
7427;DHT22;3755;59.316;18.092;2023-04-01T17:45:54;1.40;96.00
7427;DHT22;3755;59.316;18.092;2023-04-01T17:48:35;1.40;96.90
7427;DHT22;3755;59.316;18.092;2023-04-01T17:51:20;1.40;97.40
7427;DHT22;3755;59.316;18.092;2023-04-01T17:53:56;1.30;97.60
7427;DHT22;3755;59.316;18.092;2023-04-01T17:56:49;1.20;98.00
7427;DHT22;3755;59.316;18.092;2023-04-01T17:59:26;1.20;98.90
7427;DHT22;3755;59.316;18.092;2023-04-01T18:02:20;1.20;99.50
7427;DHT22;3755;59.316;18.092;2023-04-01T18:05:04;1.10;99.80
7427;DHT22;3755;59.316;18.092;2023-04-01T18:10:58;1.10;99.90
7427;DHT22;3755;59.316;18.092;2023-04-01T18:13:58;1.00;99.90
7427;DHT22;3755;59.316;18.092;2023-04-01T18:16:56;1.00;99.90
7427;DHT22;3755;59.316;18.092;2023-04-01T18:19:43;0.90;99.90
7427;DHT22;3755;59.316;18.092;2023-04-01T18:22:33;0.80;99.90
7427;DHT22;3755;59.316;18.092;2023-04-01T18:25:15;0.70;99.90
7427;DHT22;3755;59.316;18.092;2023-04-01T18:30:58;0.60;99.90
7427;DHT22;3755;59.316;18.092;2023-04-01T18:33:41;0.50;99.90
7427;DHT22;3755;59.316;18.092;2023-04-01T18:36:16;0.50;99.90
7427;DHT22;3755;59.316;18.092;2023-04-01T18:39:00;0.50;99.90
7427;DHT22;3755;59.316;18.092;2023-04-01T18:41:44;0.40;99.90
7427;DHT22;3755;59.316;18.092;2023-04-01T18:44:41;0.40;99.90
7427;DHT22;3755;59.316;18.092;2023-04-01T18:47:34;0.30;99.90
7427;DHT22;3755;59.316;18.092;2023-04-01T18:50:18;0.30;99.90
7427;DHT22;3755;59.316;18.092;2023-04-01T18:53:14;0.20;99.90
7427;DHT22;3755;59.316;18.092;2023-04-01T18:56:02;0.20;99.90
7427;DHT22;3755;59.316;18.092;2023-04-01T18:58:49;0.10;99.90
7427;DHT22;3755;59.316;18.092;2023-04-01T19:01:31;0.10;99.90
7427;DHT22;3755;59.316;18.092;2023-04-01T19:04:21;0.00;99.90
7427;DHT22;3755;59.316;18.092;2023-04-01T19:07:40;0.00;99.90
7427;DHT22;3755;59.316;18.092;2023-04-01T19:10:26;-0.10;99.90
7427;DHT22;3755;59.316;18.092;2023-04-01T19:13:18;0.00;99.90
7427;DHT22;3755;59.316;18.092;2023-04-01T19:19:38;-0.10;99.90
7427;DHT22;3755;59.316;18.092;2023-04-01T19:22:33;-0.20;99.90
7427;DHT22;3755;59.316;18.092;2023-04-01T19:25:29;-0.20;99.90
7427;DHT22;3755;59.316;18.092;2023-04-01T19:28:24;-0.20;99.90
7427;DHT22;3755;59.316;18.092;2023-04-01T19:31:18;-0.30;99.90
7427;DHT22;3755;59.316;18.092;2023-04-01T19:34:01;-0.30;99.90
7427;DHT22;3755;59.316;18.092;2023-04-01T19:36:55;-0.40;99.90
7427;DHT22;3755;59.316;18.092;2023-04-01T19:39:39;-0.40;99.90